Time;durP1;ratioP1;P1;durP2;ratioP2;P2;SDS_P1;SDS_P2;PMS_P1;PMS_P2;Temp;Humidity;BMP_temperature;BMP_pressure;BME280_temperature;BME280_humidity;BME280_pressure;Samples;Min_cycle;Max_cycle;Signal;HPM_P1;HPM_P2
2022/09/09 00:01:05;;;;;;;3.80;3.03;;;;;;;14.42;71.63;96765.25;5092744;28;20052;-65
2022/09/09 00:03:41;;;;;;;4.32;2.90;;;;;;;14.42;71.58;96767.06;5093777;28;20071;-64
2022/09/09 00:06:18;;;;;;;9.48;2.88;;;;;;;14.33;71.72;96769.19;5096440;28;20109;-64
2022/09/09 00:08:54;;;;;;;8.85;3.00;;;;;;;14.31;71.81;96768.44;5096602;28;20055;-65
2022/09/09 00:11:29;;;;;;;6.00;3.28;;;;;;;14.30;71.82;96771.97;5096299;28;20066;-62
2022/09/09 00:14:04;;;;;;;6.00;3.47;;;;;;;14.25;71.90;96774.00;5096441;28;20044;-62
2022/09/09 00:16:41;;;;;;;6.85;2.70;;;;;;;14.20;71.88;96774.22;5096318;28;20444;-67
2022/09/09 00:19:17;;;;;;;3.35;2.80;;;;;;;14.15;71.96;96769.19;5096301;28;20055;-63
2022/09/09 00:21:54;;;;;;;5.30;3.17;;;;;;;14.06;71.78;96763.53;5096224;28;20113;-65
2022/09/09 00:24:28;;;;;;;4.22;2.92;;;;;;;13.86;71.52;96765.34;5096016;28;20048;-63
2022/09/09 00:27:05;;;;;;;3.22;2.90;;;;;;;13.81;71.81;96762.09;5095966;28;20043;-65
2022/09/09 00:29:42;;;;;;;2.70;2.50;;;;;;;13.83;72.31;96766.34;5096094;28;20044;-66
2022/09/09 00:32:14;;;;;;;5.05;2.65;;;;;;;13.82;72.10;96769.88;5096078;28;20083;-63
2022/09/09 00:34:50;;;;;;;3.60;3.03;;;;;;;13.81;72.37;96769.97;5096059;28;20044;-64
2022/09/09 00:37:19;;;;;;;3.85;2.90;;;;;;;13.80;72.55;96771.75;5096010;28;20103;-64
2022/09/09 00:39:49;;;;;;;5.18;3.13;;;;;;;13.79;72.45;96763.94;5095945;28;20048;-66
2022/09/09 00:42:19;;;;;;;5.38;3.40;;;;;;;13.78;72.25;96768.31;5095889;28;20044;-62
2022/09/09 00:45:02;;;;;;;5.40;2.85;;;;;;;13.77;72.21;96762.22;5095824;28;20102;-63
2022/09/09 00:47:42;;;;;;;2.88;2.60;;;;;;;13.70;72.22;96766.06;5095721;28;20052;-61
2022/09/09 00:50:32;;;;;;;2.78;2.50;;;;;;;13.73;72.19;96772.97;5095672;28;20127;-62
2022/09/09 00:53:10;;;;;;;5.05;2.90;;;;;;;13.66;72.12;96763.66;5095546;28;20055;-61
2022/09/09 00:55:44;;;;;;;2.85;2.50;;;;;;;13.62;72.14;96766.44;5095424;28;20477;-63
2022/09/09 00:58:12;;;;;;;4.28;3.22;;;;;;;13.58;72.04;96761.38;5095535;28;20071;-66
2022/09/09 01:00:44;;;;;;;6.43;2.47;;;;;;;13.57;72.01;96757.06;5095476;28;20044;-65
2022/09/09 01:03:23;;;;;;;2.63;2.42;;;;;;;13.49;72.56;96760.88;5095432;28;20048;-65
2022/09/09 01:06:02;;;;;;;4.88;2.50;;;;;;;13.46;72.32;96763.63;5095433;28;20460;-61
2022/09/09 01:08:55;;;;;;;4.03;2.67;;;;;;;13.42;72.38;96761.22;5095125;28;20087;-62
2022/09/09 01:11:25;;;;;;;2.85;2.40;;;;;;;13.33;72.50;96758.06;5095126;28;20099;-62
2022/09/09 01:14:01;;;;;;;5.88;3.00;;;;;;;13.36;72.66;96764.97;5095044;28;20044;-63
2022/09/09 01:16:31;;;;;;;3.35;2.72;;;;;;;13.34;72.46;96775.53;5095136;28;20195;-64
2022/09/09 01:19:00;;;;;;;3.53;3.00;;;;;;;13.31;72.75;96775.69;5095145;28;20046;-62
2022/09/09 01:21:37;;;;;;;4.85;2.97;;;;;;;13.26;72.46;96773.28;5095166;28;20082;-64
2022/09/09 01:24:22;;;;;;;5.65;3.10;;;;;;;13.22;72.49;96776.09;5095054;28;20048;-63
2022/09/09 01:26:53;;;;;;;3.85;2.92;;;;;;;13.20;72.67;96770.06;5094949;28;20478;-62
2022/09/09 01:29:23;;;;;;;4.15;2.70;;;;;;;13.21;72.55;96774.38;5094858;28;20093;-62
2022/09/09 01:31:55;;;;;;;3.28;2.60;;;;;;;13.19;72.60;96763.97;5095035;28;20072;-64
2022/09/09 01:34:25;;;;;;;3.97;2.58;;;;;;;13.17;72.46;96755.31;5095106;28;20101;-62
2022/09/09 01:36:59;;;;;;;4.38;2.60;;;;;;;13.15;72.69;96751.88;5094804;28;20044;-65
2022/09/09 01:39:27;;;;;;;4.53;2.80;;;;;;;13.07;72.62;96754.88;5094879;28;20452;-62
2022/09/09 01:41:57;;;;;;;4.00;2.80;;;;;;;13.01;72.73;96753.34;5094776;28;20067;-63
2022/09/09 01:44:26;;;;;;;2.92;2.72;;;;;;;12.98;72.66;96745.59;5094693;28;20072;-65
2022/09/09 01:46:54;;;;;;;4.25;2.67;;;;;;;12.95;73.00;96742.28;5094602;28;20485;-62
2022/09/09 01:49:21;;;;;;;4.43;3.15;;;;;;;12.90;72.83;96747.72;5094555;28;20052;-62
2022/09/09 01:51:52;;;;;;;6.22;2.50;;;;;;;12.91;72.79;96738.09;5094494;28;20070;-63
2022/09/09 01:54:20;;;;;;;5.35;3.03;;;;;;;12.94;73.23;96748.47;5094411;28;20079;-64
2022/09/09 01:56:55;;;;;;;4.38;2.70;;;;;;;12.93;72.98;96744.97;5094409;28;20083;-64
2022/09/09 01:59:38;;;;;;;7.15;2.97;;;;;;;12.85;73.03;96750.56;5094592;28;20131;-65
2022/09/09 02:02:12;;;;;;;4.90;2.65;;;;;;;12.84;73.23;96746.22;5094231;28;20084;-64
2022/09/09 02:04:42;;;;;;;6.05;3.15;;;;;;;12.84;73.40;96743.63;5094259;28;20071;-66
2022/09/09 02:07:22;;;;;;;5.07;3.10;;;;;;;12.86;73.54;96748.78;5094339;28;20126;-64
2022/09/09 02:09:56;;;;;;;5.65;2.60;;;;;;;12.89;73.65;96749.50;5093844;28;20056;-61
2022/09/09 02:12:27;;;;;;;4.72;3.13;;;;;;;12.88;73.37;96733.81;5094119;28;20052;-62
2022/09/09 02:15:01;;;;;;;9.82;2.53;;;;;;;12.80;73.51;96741.19;5094154;28;20084;-63
2022/09/09 02:17:32;;;;;;;4.90;3.30;;;;;;;12.73;73.58;96741.44;5093983;28;20055;-64
2022/09/09 02:20:05;;;;;;;3.83;3.08;;;;;;;12.76;74.00;96749.19;5094120;28;20044;-66
2022/09/09 02:22:35;;;;;;;9.00;2.97;;;;;;;12.77;73.83;96755.31;5093851;28;20044;-65
2022/09/09 02:25:05;;;;;;;3.35;2.72;;;;;;;12.72;73.61;96747.63;5093804;28;20048;-62
2022/09/09 02:27:32;;;;;;;4.97;2.78;;;;;;;12.69;73.77;96750.38;5093040;28;20079;-64
2022/09/09 02:30:03;;;;;;;5.95;3.28;;;;;;;12.70;73.76;96744.19;5093860;28;20088;-62
2022/09/09 02:32:33;;;;;;;5.78;3.10;;;;;;;12.70;73.97;96735.50;5093664;28;20499;-65
2022/09/09 02:35:08;;;;;;;3.33;2.63;;;;;;;12.70;73.91;96731.06;5093774;28;20055;-65
2022/09/09 02:37:39;;;;;;;5.90;2.72;;;;;;;12.71;73.69;96732.81;5093507;28;20055;-65
2022/09/09 02:40:09;;;;;;;3.90;2.80;;;;;;;12.68;73.76;96732.94;5093550;28;20418;-66
2022/09/09 02:42:41;;;;;;;3.20;2.90;;;;;;;12.66;73.68;96736.53;5093579;28;20126;-66
2022/09/09 02:45:15;;;;;;;4.43;3.40;;;;;;;12.63;74.13;96733.13;5093591;28;20055;-65
2022/09/09 02:47:52;;;;;;;5.20;2.90;;;;;;;12.63;74.17;96730.50;5093605;28;20044;-65
2022/09/09 02:50:24;;;;;;;7.00;2.83;;;;;;;12.63;74.14;96730.50;5093406;28;20048;-64
2022/09/09 02:53:03;;;;;;;4.50;2.70;;;;;;;12.62;74.02;96739.28;5093394;28;20126;-62
2022/09/09 02:55:39;;;;;;;3.60;3.00;;;;;;;12.57;74.05;96743.88;5092890;28;20055;-64
2022/09/09 02:58:11;;;;;;;3.47;2.85;;;;;;;12.62;74.47;96746.31;5093461;28;20047;-63
2022/09/09 03:00:41;;;;;;;7.22;2.70;;;;;;;12.59;74.29;96738.56;5093343;28;20070;-64
2022/09/09 03:03:09;;;;;;;7.80;3.10;;;;;;;12.57;74.44;96746.50;5093338;28;20130;-63
2022/09/09 03:05:37;;;;;;;6.65;3.00;;;;;;;12.48;74.90;96736.41;5093206;28;20295;-62
2022/09/09 03:08:05;;;;;;;5.00;2.83;;;;;;;12.41;75.14;96725.34;5093194;28;20051;-62
2022/09/09 03:10:32;;;;;;;7.25;3.28;;;;;;;12.43;75.16;96720.03;5093077;28;20056;-64
2022/09/09 03:12:59;;;;;;;4.07;3.28;;;;;;;12.44;74.83;96725.19;5093211;28;20051;-63
2022/09/09 03:15:28;;;;;;;4.55;2.70;;;;;;;12.45;74.79;96723.41;5093230;28;20493;-63
2022/09/09 03:17:57;;;;;;;6.43;3.00;;;;;;;12.41;74.65;96732.34;5093240;28;20471;-64
2022/09/09 03:20:25;;;;;;;3.20;2.80;;;;;;;12.41;74.74;96725.34;5093250;28;20413;-64
2022/09/09 03:22:52;;;;;;;4.15;2.80;;;;;;;12.41;74.78;96738.44;5093207;28;20054;-63
2022/09/09 03:25:20;;;;;;;5.55;2.97;;;;;;;12.38;74.55;96738.56;5093147;28;20522;-63
2022/09/09 03:27:47;;;;;;;5.72;3.20;;;;;;;12.35;74.50;96739.56;5093111;28;20232;-64
2022/09/09 03:30:14;;;;;;;3.03;2.72;;;;;;;12.37;75.07;96740.34;5093058;28;20084;-63
2022/09/09 03:32:42;;;;;;;3.42;2.72;;;;;;;12.35;75.07;96751.81;5093059;28;20494;-61
2022/09/09 03:35:10;;;;;;;4.70;2.65;;;;;;;12.24;75.77;96747.00;5092994;28;20127;-62
2022/09/09 03:37:38;;;;;;;4.82;3.15;;;;;;;12.22;75.72;96744.44;5094269;28;20048;-63
2022/09/09 03:40:07;;;;;;;7.93;3.13;;;;;;;12.23;75.43;96738.31;5097123;28;20469;-65
2022/09/09 03:42:36;;;;;;;6.85;2.88;;;;;;;12.23;75.31;96750.56;5097168;28;20105;-62
2022/09/09 03:45:04;;;;;;;2.85;2.65;;;;;;;12.25;75.42;96746.94;5097005;28;20440;-66
2022/09/09 03:47:32;;;;;;;5.80;2.60;;;;;;;12.23;75.29;96740.06;5097037;28;20075;-65
2022/09/09 03:49:59;;;;;;;2.58;2.38;;;;;;;12.25;75.18;96741.69;5096784;28;20055;-64
2022/09/09 03:52:27;;;;;;;5.35;2.58;;;;;;;12.22;75.29;96747.06;5096866;28;20048;-63
2022/09/09 03:54:56;;;;;;;7.20;2.63;;;;;;;12.17;75.77;96743.81;5096820;28;20051;-62
2022/09/09 03:57:23;;;;;;;4.78;2.80;;;;;;;12.18;75.56;96749.88;5096681;28;20054;-63
2022/09/09 03:59:51;;;;;;;4.40;2.58;;;;;;;12.12;76.08;96751.00;5096612;28;20070;-66
2022/09/09 04:02:18;;;;;;;7.88;2.70;;;;;;;12.17;76.15;96749.03;5096588;28;20087;-63
2022/09/09 04:04:45;;;;;;;6.18;2.72;;;;;;;12.23;76.08;96746.19;5096590;28;20056;-63
2022/09/09 04:07:12;;;;;;;5.78;2.25;;;;;;;12.30;76.09;96753.75;5096593;28;20520;-63
2022/09/09 04:09:41;;;;;;;6.25;2.55;;;;;;;12.36;75.65;96762.25;5096464;28;20074;-62
2022/09/09 04:12:08;;;;;;;3.53;2.53;;;;;;;12.37;75.29;96761.31;5096443;28;20044;-64
2022/09/09 04:14:36;;;;;;;4.65;2.88;;;;;;;12.41;75.46;96775.19;5096382;28;20044;-63
2022/09/09 04:17:05;;;;;;;2.92;2.30;;;;;;;12.43;75.36;96786.44;5096250;28;20044;-61
2022/09/09 04:19:33;;;;;;;3.88;2.50;;;;;;;12.45;75.21;96775.88;5096399;28;20047;-60
2022/09/09 04:22:00;;;;;;;2.95;2.53;;;;;;;12.47;75.28;96774.06;5096341;28;20128;-62
2022/09/09 04:24:28;;;;;;;3.38;2.42;;;;;;;12.53;75.04;96767.69;5096118;28;20554;-65
2022/09/09 04:26:59;;;;;;;8.50;2.60;;;;;;;12.55;76.03;96768.50;5096114;28;20055;-65
2022/09/09 04:29:26;;;;;;;4.20;2.75;;;;;;;12.63;75.97;96762.00;5095992;28;20047;-65
2022/09/09 04:31:53;;;;;;;3.60;2.45;;;;;;;12.72;76.06;96757.25;5096103;28;20044;-62
2022/09/09 04:34:20;;;;;;;5.95;2.88;;;;;;;12.81;75.56;96762.13;5095923;28;20048;-66
2022/09/09 04:36:48;;;;;;;4.45;2.22;;;;;;;13.09;75.25;96753.00;5095810;28;20055;-64
2022/09/09 04:39:15;;;;;;;3.97;2.40;;;;;;;13.47;74.32;96748.72;5095935;28;20055;-63
2022/09/09 04:41:42;;;;;;;2.80;2.20;;;;;;;14.03;72.83;96752.22;5095834;28;20127;-63
2022/09/09 04:44:11;;;;;;;7.95;2.63;;;;;;;14.64;70.76;96753.66;5095749;28;20044;-65
2022/09/09 04:46:38;;;;;;;5.93;2.38;;;;;;;15.33;68.48;96752.78;5095730;28;20120;-63
2022/09/09 04:49:05;;;;;;;4.40;2.00;;;;;;;16.02;65.53;96748.13;5095182;28;20074;-64
2022/09/09 04:51:32;;;;;;;8.38;2.45;;;;;;;16.69;63.43;96746.06;5095713;28;20051;-65
2022/09/09 04:53:59;;;;;;;3.53;1.73;;;;;;;17.33;61.27;96744.09;5095552;28;20131;-64
2022/09/09 04:56:28;;;;;;;4.03;2.10;;;;;;;17.99;59.57;96751.38;5095671;28;20051;-65
2022/09/09 04:58:55;;;;;;;3.47;2.00;;;;;;;18.72;57.52;96753.75;5095464;28;20044;-62
2022/09/09 05:01:24;;;;;;;3.03;1.88;;;;;;;19.41;55.88;96749.94;5095474;28;20421;-61
2022/09/09 05:03:53;;;;;;;7.63;2.30;;;;;;;20.06;54.24;96760.41;5095583;28;20051;-63
2022/09/09 05:06:22;;;;;;;5.95;2.13;;;;;;;20.69;52.11;96765.50;5095446;28;20055;-63
2022/09/09 05:08:49;;;;;;;8.00;1.80;;;;;;;21.18;50.68;96754.72;5095327;28;20485;-64
2022/09/09 05:11:19;;;;;;;3.42;1.90;;;;;;;21.68;49.04;96745.53;5095029;28;20395;-66
2022/09/09 05:13:47;;;;;;;5.80;1.92;;;;;;;22.06;47.53;96738.06;5095338;28;20482;-65
2022/09/09 05:16:15;;;;;;;3.50;1.80;;;;;;;22.61;47.06;96746.97;5095375;28;20131;-66
2022/09/09 05:18:44;;;;;;;3.60;1.80;;;;;;;23.14;46.24;96749.69;5095213;28;20504;-63
2022/09/09 05:21:12;;;;;;;4.13;1.70;;;;;;;23.70;45.35;96747.53;5095022;28;20509;-63
2022/09/09 05:23:40;;;;;;;4.40;1.70;;;;;;;24.18;44.34;96748.66;5095011;28;20144;-62
2022/09/09 05:26:12;;;;;;;6.13;1.90;;;;;;;24.59;43.33;96755.72;5095088;28;20055;-62
2022/09/09 05:28:40;;;;;;;3.60;2.08;;;;;;;24.85;42.60;96741.72;5094833;28;20055;-63
2022/09/09 05:31:11;;;;;;;3.03;2.05;;;;;;;25.19;41.53;96748.44;5094985;28;20117;-65
2022/09/09 05:33:40;;;;;;;4.13;2.00;;;;;;;25.78;41.56;96748.22;5094850;28;20052;-64
2022/09/09 05:36:10;;;;;;;2.22;1.73;;;;;;;26.29;41.38;96739.72;5094866;28;20436;-64
2022/09/09 05:38:37;;;;;;;3.90;1.88;;;;;;;26.80;39.59;96741.81;5094864;28;20643;-65
2022/09/09 05:41:05;;;;;;;7.05;2.03;;;;;;;27.29;39.10;96742.31;5094833;28;20048;-64
2022/09/09 05:43:32;;;;;;;3.13;1.77;;;;;;;27.75;37.98;96736.66;5094661;28;20093;-61
2022/09/09 05:46:02;;;;;;;6.18;1.77;;;;;;;28.20;37.41;96745.34;5094616;28;20040;-66
2022/09/09 05:48:31;;;;;;;3.97;1.80;;;;;;;28.50;36.71;96745.75;5094420;28;20390;-65
2022/09/09 05:50:59;;;;;;;6.97;1.92;;;;;;;28.81;36.98;96738.88;5094433;28;20048;-66
2022/09/09 05:53:32;;;;;;;4.28;2.00;;;;;;;29.04;35.59;96745.44;5094515;28;20048;-62
2022/09/09 05:56:04;;;;;;;10.48;2.10;;;;;;;29.34;34.83;96751.91;5094420;28;20055;-65
2022/09/09 05:58:31;;;;;;;3.17;1.80;;;;;;;29.57;35.21;96756.59;5094329;28;20072;-65
2022/09/09 06:01:03;;;;;;;8.20;2.00;;;;;;;29.80;35.16;96749.59;5093311;28;20143;-63
2022/09/09 06:03:30;;;;;;;3.45;1.70;;;;;;;29.84;34.22;96751.78;5094223;28;20044;-67
2022/09/09 06:06:01;;;;;;;3.25;1.77;;;;;;;29.94;34.04;96753.38;5094278;28;20052;-64
2022/09/09 06:08:30;;;;;;;5.22;2.00;;;;;;;30.02;34.26;96746.13;5094035;28;20138;-62
2022/09/09 06:11:04;;;;;;;4.47;2.20;;;;;;;29.83;33.96;96750.06;5093899;28;20048;-65
2022/09/09 06:13:31;;;;;;;2.70;2.03;;;;;;;29.67;35.40;96747.47;5092849;28;20048;-63
2022/09/09 06:15:59;;;;;;;7.63;2.70;;;;;;;29.74;34.32;96741.19;5094131;28;20060;-66
2022/09/09 06:18:27;;;;;;;5.00;2.45;;;;;;;29.64;34.01;96736.03;5093919;28;20432;-66
2022/09/09 06:21:00;;;;;;;3.42;2.33;;;;;;;29.59;34.63;96734.88;5093902;28;20044;-64
2022/09/09 06:23:28;;;;;;;3.42;1.92;;;;;;;29.55;35.18;96746.97;5093846;28;20044;-63
2022/09/09 06:26:05;;;;;;;3.35;2.10;;;;;;;29.51;34.77;96757.25;5093955;28;20386;-66
2022/09/09 06:28:32;;;;;;;3.85;1.80;;;;;;;29.41;35.92;96751.22;5093762;28;20047;-62
2022/09/09 06:31:00;;;;;;;5.28;2.47;;;;;;;29.48;36.44;96744.97;5093800;28;20482;-62
2022/09/09 06:33:31;;;;;;;4.57;2.00;;;;;;;29.46;35.34;96740.75;5093823;28;20044;-63
2022/09/09 06:35:58;;;;;;;4.85;2.35;;;;;;;29.48;34.85;96738.75;5093745;28;20044;-66
2022/09/09 06:38:26;;;;;;;6.82;2.30;;;;;;;29.47;34.46;96743.28;5093646;28;20386;-62
2022/09/09 06:40:54;;;;;;;4.78;2.35;;;;;;;29.54;33.64;96750.66;5093662;28;20127;-64
2022/09/09 06:43:23;;;;;;;3.92;2.55;;;;;;;29.21;34.18;96749.78;5093724;28;20048;-67
2022/09/09 06:45:57;;;;;;;3.55;1.95;;;;;;;29.00;34.10;96755.69;5093633;28;20468;-64
2022/09/09 06:48:26;;;;;;;5.00;2.55;;;;;;;28.85;34.55;96756.34;5093527;28;20129;-66
2022/09/09 06:51:01;;;;;;;6.82;2.13;;;;;;;29.01;34.61;96760.06;5093467;28;20052;-66
2022/09/09 06:53:29;;;;;;;7.72;2.33;;;;;;;28.86;34.37;96755.34;5093528;28;20504;-64
2022/09/09 06:55:56;;;;;;;6.10;2.53;;;;;;;28.90;35.15;96750.47;5093480;28;20119;-67
2022/09/09 06:58:25;;;;;;;7.72;2.75;;;;;;;29.08;33.75;96747.59;5093456;28;20435;-64
2022/09/09 07:00:52;;;;;;;4.20;2.10;;;;;;;29.30;33.81;96761.34;5093273;28;20056;-62
2022/09/09 07:03:19;;;;;;;3.92;2.20;;;;;;;29.28;34.28;96752.59;5093333;28;20489;-64
2022/09/09 07:05:55;;;;;;;6.65;2.45;;;;;;;29.50;34.21;96750.19;5093310;28;20051;-65
2022/09/09 07:08:23;;;;;;;4.95;2.13;;;;;;;29.71;33.62;96746.09;5093284;28;20101;-63
2022/09/09 07:10:51;;;;;;;5.97;2.25;;;;;;;29.84;33.76;96748.22;5092979;28;20425;-64
2022/09/09 07:13:18;;;;;;;6.30;2.33;;;;;;;29.84;33.54;96742.84;5092818;28;20048;-63
2022/09/09 07:15:47;;;;;;;4.43;2.65;;;;;;;29.67;34.03;96744.78;5093487;28;20056;-63
2022/09/09 07:18:14;;;;;;;7.07;2.85;;;;;;;29.55;34.14;96747.84;5093160;28;20055;-66
2022/09/09 07:20:41;;;;;;;8.00;2.70;;;;;;;29.66;34.19;96740.38;5093161;28;20503;-67
2022/09/09 07:23:08;;;;;;;8.98;2.50;;;;;;;29.13;32.19;96742.53;5093104;28;20040;-64
2022/09/09 07:25:35;;;;;;;7.03;3.08;;;;;;;28.34;33.85;96734.97;5093217;28;20105;-64
2022/09/09 07:28:03;;;;;;;4.90;3.38;;;;;;;27.84;33.79;96737.56;5093102;28;20187;-62
2022/09/09 07:30:30;;;;;;;9.35;3.67;;;;;;;27.50;35.16;96742.78;5093009;28;20056;-64
2022/09/09 07:32:59;;;;;;;9.85;3.70;;;;;;;26.99;36.51;96737.28;5093404;28;20044;-64
2022/09/09 07:35:26;;;;;;;5.03;3.15;;;;;;;27.09;37.24;96739.88;5092981;28;20044;-65
2022/09/09 07:37:53;;;;;;;8.27;3.22;;;;;;;27.39;37.95;96751.09;5092900;28;20139;-67
2022/09/09 07:40:22;;;;;;;10.32;2.42;;;;;;;27.61;36.11;96757.75;5092983;28;20094;-66
2022/09/09 07:42:49;;;;;;;6.50;2.42;;;;;;;27.60;36.51;96763.28;5093036;28;20095;-63
2022/09/09 07:45:16;;;;;;;9.63;2.33;;;;;;;27.43;36.02;96765.03;5092933;28;20545;-61
2022/09/09 07:47:43;;;;;;;5.15;2.42;;;;;;;27.57;38.11;96769.00;5092982;28;20040;-63
2022/09/09 07:50:12;;;;;;;6.05;2.08;;;;;;;27.66;37.99;96767.22;5092777;28;20048;-65
2022/09/09 07:52:39;;;;;;;3.75;2.10;;;;;;;27.90;37.84;96776.38;5092929;28;20486;-65
2022/09/09 07:55:06;;;;;;;4.35;2.42;;;;;;;28.09;37.69;96773.41;5092724;28;20140;-65
2022/09/09 07:57:34;;;;;;;3.22;2.15;;;;;;;28.41;37.31;96775.50;5092789;28;20109;-63
2022/09/09 08:00:02;;;;;;;13.32;3.63;;;;;;;28.48;37.62;96774.66;5092785;28;20132;-64
2022/09/09 08:02:29;;;;;;;3.78;2.15;;;;;;;28.53;37.00;96765.28;5092838;28;20561;-63
2022/09/09 08:04:56;;;;;;;10.50;2.50;;;;;;;28.71;37.15;96768.63;5092771;28;20047;-66
2022/09/09 08:07:25;;;;;;;6.07;1.90;;;;;;;28.93;36.91;96778.88;5092719;28;20405;-64
2022/09/09 08:09:54;;;;;;;5.00;2.33;;;;;;;29.05;36.68;96787.50;5092279;28;20044;-64
2022/09/09 08:12:22;;;;;;;13.50;2.63;;;;;;;29.27;36.21;96783.25;5093045;28;20044;-67
2022/09/09 08:14:49;;;;;;;8.35;2.10;;;;;;;29.26;35.23;96765.41;5092704;28;20052;-64
2022/09/09 08:17:16;;;;;;;5.25;2.22;;;;;;;29.39;36.22;96762.19;5092758;28;20040;-65
2022/09/09 08:19:44;;;;;;;7.07;1.77;;;;;;;29.33;35.51;96763.72;5092582;28;20194;-63
2022/09/09 08:22:11;;;;;;;10.20;2.85;;;;;;;29.01;36.94;96758.22;5092507;28;20044;-66
2022/09/09 08:24:40;;;;;;;3.70;2.00;;;;;;;29.11;36.36;96758.03;5093652;28;20043;-62
2022/09/09 08:27:09;;;;;;;3.08;1.90;;;;;;;29.10;36.69;96750.97;5096152;28;20044;-64
2022/09/09 08:29:38;;;;;;;7.00;2.10;;;;;;;29.19;35.79;96756.34;5095933;28;20450;-62
2022/09/09 08:32:05;;;;;;;3.78;2.30;;;;;;;29.20;36.42;96750.75;5096014;28;20048;-64
2022/09/09 08:34:32;;;;;;;3.25;1.92;;;;;;;29.24;36.00;96744.03;5096170;28;20044;-63
2022/09/09 08:37:00;;;;;;;5.32;2.30;;;;;;;29.52;35.68;96732.00;5095844;28;20381;-64
2022/09/09 08:39:27;;;;;;;4.47;2.40;;;;;;;29.52;36.64;96723.91;5095958;28;20812;-63
2022/09/09 08:42:29;;;;;;;5.50;2.05;;;;;;;29.21;35.61;96725.53;5095814;28;20517;-63
2022/09/09 08:45:15;;;;;;;3.75;2.22;;;;;;;28.74;36.52;96727.09;5094102;28;20539;-65
2022/09/09 08:47:54;;;;;;;4.93;2.10;;;;;;;28.84;35.38;96726.94;5095778;28;20047;-63
2022/09/09 08:50:27;;;;;;;3.90;2.08;;;;;;;28.34;35.80;96727.78;5095736;28;20056;-62
2022/09/09 08:53:02;;;;;;;3.00;2.28;;;;;;;27.98;36.19;96733.38;5095702;28;20050;-64
2022/09/09 08:55:41;;;;;;;4.13;2.50;;;;;;;27.23;38.02;96722.31;5095538;28;20062;-64
2022/09/09 08:58:15;;;;;;;5.07;2.38;;;;;;;27.41;38.91;96722.25;5095759;28;20059;-65
2022/09/09 09:01:02;;;;;;;5.25;2.47;;;;;;;27.66;38.76;96708.13;5095730;28;20079;-63
2022/09/09 09:03:41;;;;;;;5.75;2.92;;;;;;;27.91;40.22;96710.88;5093639;28;20531;-62
2022/09/09 09:06:26;;;;;;;6.57;4.10;;;;;;;28.01;39.39;96711.56;5095589;28;20169;-62
2022/09/09 09:09:02;;;;;;;3.55;2.63;;;;;;;28.18;38.57;96715.13;5095409;28;20044;-63
2022/09/09 09:11:36;;;;;;;6.18;2.55;;;;;;;28.44;38.58;96711.47;5095297;28;20052;-63
2022/09/09 09:14:13;;;;;;;7.05;2.10;;;;;;;28.58;39.26;96718.03;5095395;28;20068;-62
2022/09/09 09:16:53;;;;;;;4.40;2.38;;;;;;;28.28;39.25;96709.56;5095304;28;20493;-64
2022/09/09 09:19:22;;;;;;;3.65;2.45;;;;;;;28.33;39.03;96711.81;5095139;28;20159;-61
2022/09/09 09:21:55;;;;;;;5.10;2.42;;;;;;;28.53;39.18;96717.69;5095012;28;20056;-63
2022/09/09 09:24:28;;;;;;;4.40;2.40;;;;;;;28.36;37.77;96706.09;5095063;28;20044;-61
2022/09/09 09:26:55;;;;;;;8.13;2.33;;;;;;;28.20;39.23;96705.03;5095098;28;20056;-65
2022/09/09 09:29:27;;;;;;;2.78;2.13;;;;;;;28.38;39.62;96704.91;5094845;28;20093;-65
2022/09/09 09:31:56;;;;;;;4.53;2.30;;;;;;;28.33;39.57;96706.44;5094883;28;20640;-61
2022/09/09 09:34:24;;;;;;;3.20;2.45;;;;;;;28.34;38.52;96700.88;5094909;28;20048;-62
2022/09/09 09:36:55;;;;;;;7.53;2.20;;;;;;;28.11;40.71;96700.66;5094688;28;20047;-62
2022/09/09 09:39:27;;;;;;;4.93;2.60;;;;;;;28.19;39.65;96697.97;5094724;28;20089;-63
2022/09/09 09:41:57;;;;;;;4.57;2.25;;;;;;;28.24;39.12;96703.69;5094648;28;20489;-63
2022/09/09 09:44:28;;;;;;;4.90;2.30;;;;;;;28.28;40.30;96700.66;5094706;28;20118;-64
2022/09/09 09:47:07;;;;;;;4.93;2.47;;;;;;;28.30;40.68;96702.22;5094689;28;20627;-64
2022/09/09 09:49:34;;;;;;;8.70;3.00;;;;;;;28.28;40.07;96692.59;5094617;28;20079;-62
2022/09/09 09:52:02;;;;;;;2.67;2.17;;;;;;;28.41;39.22;96697.53;5094410;28;20051;-63
2022/09/09 09:54:32;;;;;;;4.75;1.90;;;;;;;28.40;38.80;96693.13;5094414;28;20440;-62
2022/09/09 09:57:12;;;;;;;4.28;2.33;;;;;;;28.54;39.73;96687.09;5094458;28;20132;-61
2022/09/09 09:59:40;;;;;;;10.00;2.70;;;;;;;28.60;39.38;96685.59;5094238;28;20054;-63
2022/09/09 10:02:16;;;;;;;4.22;2.30;;;;;;;28.79;38.59;96683.53;5094305;28;20048;-63
2022/09/09 10:04:45;;;;;;;3.90;2.60;;;;;;;28.83;38.00;96683.00;5094224;28;20048;-65
2022/09/09 10:07:13;;;;;;;8.55;2.38;;;;;;;28.71;39.08;96676.31;5094332;28;20047;-62
2022/09/09 10:09:41;;;;;;;3.00;2.30;;;;;;;28.74;37.90;96674.13;5094205;28;20398;-61
2022/09/09 10:12:22;;;;;;;3.00;2.35;;;;;;;28.55;38.41;96686.09;5094220;28;20059;-62
2022/09/09 10:15:02;;;;;;;3.85;2.45;;;;;;;28.01;35.82;96676.63;5094138;28;20047;-63
2022/09/09 10:17:39;;;;;;;9.38;2.70;;;;;;;27.77;38.48;96680.09;5093847;28;20084;-63
2022/09/09 10:20:33;;;;;;;6.68;2.65;;;;;;;27.50;38.70;96677.47;5094138;28;20375;-63
2022/09/09 10:23:15;;;;;;;6.53;2.60;;;;;;;27.66;38.56;96673.19;5094088;28;20063;-64
2022/09/09 10:26:12;;;;;;;3.30;2.78;;;;;;;27.94;40.01;96664.84;5093989;28;20052;-63
2022/09/09 10:29:10;;;;;;;2.90;2.20;;;;;;;28.04;38.48;96667.38;5093874;28;20048;-65
2022/09/09 10:31:50;;;;;;;7.80;2.67;;;;;;;28.08;38.27;96661.50;5093815;28;20062;-64
2022/09/09 10:34:40;;;;;;;3.50;2.17;;;;;;;28.14;37.39;96665.38;5093943;28;20109;-60
2022/09/09 10:37:23;;;;;;;6.55;3.00;;;;;;;27.51;38.03;96657.66;5092550;28;20051;-61
2022/09/09 10:39:58;;;;;;;3.00;2.25;;;;;;;27.46;38.22;96655.47;5093764;28;20048;-63
2022/09/09 10:42:30;;;;;;;6.38;2.88;;;;;;;27.49;38.92;96649.78;5093626;28;20131;-61
2022/09/09 10:45:15;;;;;;;9.57;2.42;;;;;;;27.62;39.67;96648.47;5093725;28;20545;-63
2022/09/09 10:48:12;;;;;;;3.58;2.50;;;;;;;27.78;39.69;96646.88;5092991;28;20058;-64
2022/09/09 10:50:52;;;;;;;2.92;2.50;;;;;;;27.74;38.79;96644.50;5092321;28;20472;-62
2022/09/09 10:53:29;;;;;;;5.97;3.17;;;;;;;27.82;38.75;96653.56;5093510;28;20040;-64
2022/09/09 10:56:04;;;;;;;5.00;2.28;;;;;;;27.71;39.56;96644.81;5093475;28;20040;-64
2022/09/09 10:58:38;;;;;;;3.53;2.58;;;;;;;27.86;38.98;96644.19;5093491;28;20044;-60
2022/09/09 11:01:15;;;;;;;2.35;2.13;;;;;;;28.10;38.81;96643.38;5093257;28;20044;-65
2022/09/09 11:03:47;;;;;;;5.15;2.30;;;;;;;28.31;38.24;96635.81;5093132;28;20131;-64
2022/09/09 11:06:18;;;;;;;4.13;2.50;;;;;;;28.36;39.22;96638.88;5093424;28;20074;-61
2022/09/09 11:08:47;;;;;;;2.55;2.33;;;;;;;28.50;39.33;96627.41;5093326;28;20048;-62
2022/09/09 11:11:20;;;;;;;6.97;2.40;;;;;;;28.63;39.09;96631.44;5093014;28;20151;-64
2022/09/09 11:13:55;;;;;;;3.88;2.42;;;;;;;28.79;38.30;96625.19;5093103;28;20078;-65
2022/09/09 11:16:30;;;;;;;6.78;2.60;;;;;;;28.60;37.95;96626.41;5093251;28;20052;-65
2022/09/09 11:19:03;;;;;;;3.65;2.15;;;;;;;28.64;37.64;96622.34;5093263;28;20097;-64
2022/09/09 11:21:34;;;;;;;3.55;2.65;;;;;;;28.59;37.37;96622.84;5093216;28;20136;-60
2022/09/09 11:24:08;;;;;;;9.10;2.55;;;;;;;28.66;38.48;96623.03;5093021;28;20048;-61
2022/09/09 11:26:41;;;;;;;5.35;2.47;;;;;;;28.87;38.61;96614.38;5093071;28;20135;-62
2022/09/09 11:29:47;;;;;;;2.72;2.17;;;;;;;28.84;36.86;96613.91;5093209;28;20072;-61
2022/09/09 11:32:37;;;;;;;2.80;2.47;;;;;;;28.72;36.45;96606.19;5093020;28;20171;-60
2022/09/09 11:35:21;;;;;;;2.85;2.42;;;;;;;28.59;37.26;96598.66;5093135;28;20044;-63
2022/09/09 11:38:20;;;;;;;5.75;2.60;;;;;;;28.57;37.11;96605.22;5092961;28;20052;-60
2022/09/09 11:40:49;;;;;;;5.43;2.45;;;;;;;28.61;36.81;96606.56;5081340;28;20135;-61
2022/09/09 11:43:21;;;;;;;4.72;2.30;;;;;;;28.65;37.60;96613.25;5093023;28;20063;-63
2022/09/09 11:45:55;;;;;;;3.60;2.42;;;;;;;28.83;36.50;96596.09;5093063;28;20101;-64
2022/09/09 11:48:30;;;;;;;3.65;2.60;;;;;;;28.98;37.03;96601.59;5093100;28;20097;-62
2022/09/09 11:51:04;;;;;;;4.65;2.83;;;;;;;28.88;35.85;96585.63;5092830;28;20093;-60
2022/09/09 11:53:33;;;;;;;11.32;2.80;;;;;;;28.85;36.65;96584.13;5092856;28;20048;-65
2022/09/09 11:56:13;;;;;;;5.20;2.47;;;;;;;28.87;38.20;96581.25;5093017;28;20044;-63